createdAt,value
2023-11-25T00:02:21.527Z,66.63
2023-11-25T00:04:54.583Z,66.65
2023-11-25T00:07:27.605Z,66.62
2023-11-25T00:10:00.613Z,66.81
2023-11-25T00:12:34.370Z,66.69
2023-11-25T00:15:08.323Z,66.84
2023-11-25T00:17:43.596Z,67.05
2023-11-25T00:20:17.226Z,66.92
2023-11-25T00:22:50.784Z,66.98
2023-11-25T00:25:25.692Z,66.85
2023-11-25T00:27:59.436Z,67.02
2023-11-25T00:30:32.462Z,66.89
2023-11-25T00:33:07.008Z,67.02
2023-11-25T00:35:39.987Z,66.97
2023-11-25T00:38:13.216Z,66.87
2023-11-25T00:40:48.352Z,66.97
2023-11-25T00:43:21.430Z,66.82
2023-11-25T00:45:54.455Z,66.78
2023-11-25T00:48:28.719Z,66.96
2023-11-25T00:51:02.554Z,66.94
2023-11-25T00:53:35.391Z,66.83
2023-11-25T00:56:08.665Z,66.91
2023-11-25T00:58:41.635Z,66.95
2023-11-25T01:01:14.520Z,66.79
2023-11-25T01:03:48.890Z,66.93
2023-11-25T01:06:22.300Z,66.86
2023-11-25T01:08:55.221Z,66.82
2023-11-25T01:11:28.114Z,66.97
2023-11-25T01:14:01.049Z,66.90
2023-11-25T01:16:34.010Z,66.93
2023-11-25T01:19:08.946Z,67.13
2023-11-25T01:21:41.905Z,67.20
2023-11-25T01:24:14.817Z,67.12
2023-11-25T01:26:47.691Z,67.39
2023-11-25T01:29:20.561Z,67.39
2023-11-25T01:31:53.421Z,67.42
2023-11-25T01:34:27.767Z,67.31
2023-11-25T01:37:00.690Z,67.22
2023-11-25T01:39:33.604Z,67.08
2023-11-25T01:42:06.946Z,66.99
2023-11-25T01:44:39.812Z,66.93
2023-11-25T01:47:14.548Z,66.94
2023-11-25T01:49:49.455Z,66.88
2023-11-25T01:52:23.551Z,66.74
2023-11-25T01:54:56.377Z,66.60
2023-11-25T01:57:30.757Z,66.49
2023-11-25T02:00:08.855Z,66.58
2023-11-25T02:02:45.104Z,66.39
2023-11-25T02:05:19.666Z,66.48
2023-11-25T02:07:52.851Z,66.25
2023-11-25T02:10:26.161Z,66.31
2023-11-25T02:12:59.040Z,66.10
2023-11-25T02:15:33.359Z,66.01
2023-11-25T02:18:06.486Z,66.13
2023-11-25T02:20:42.336Z,65.93
2023-11-25T02:23:20.603Z,65.93
2023-11-25T02:25:54.041Z,65.73
2023-11-25T02:28:27.565Z,65.69
2023-11-25T02:31:00.531Z,65.67
2023-11-25T02:33:39.251Z,65.42
2023-11-25T02:36:12.087Z,65.50
2023-11-25T02:38:46.942Z,65.36
2023-11-25T02:41:19.841Z,65.59
2023-11-25T02:43:53.710Z,65.30
2023-11-25T02:46:26.710Z,65.29
2023-11-25T02:49:00.768Z,65.28
2023-11-25T02:51:34.539Z,65.21
2023-11-25T02:54:08.891Z,65.20
2023-11-25T02:56:41.817Z,64.92
2023-11-25T02:59:15.521Z,64.93
2023-11-25T03:01:53.283Z,65.10
2023-11-25T03:04:28.186Z,65.13
2023-11-25T03:07:05.799Z,64.88
2023-11-25T03:09:43.305Z,64.98
2023-11-25T03:12:16.165Z,64.93
2023-11-25T03:14:49.025Z,64.86
2023-11-25T03:17:21.979Z,64.99
2023-11-25T03:19:54.889Z,65.08
2023-11-25T03:22:28.152Z,65.11
2023-11-25T03:25:03.127Z,65.08
2023-11-25T03:27:36.748Z,64.97
2023-11-25T03:30:12.670Z,65.12
2023-11-25T03:32:46.514Z,65.24
2023-11-25T03:35:19.535Z,65.34
2023-11-25T03:37:52.425Z,65.41
2023-11-25T03:40:27.270Z,65.37
2023-11-25T03:43:01.397Z,65.45
2023-11-25T03:45:34.306Z,65.55
2023-11-25T03:48:08.101Z,65.72
2023-11-25T03:50:41.071Z,65.62
2023-11-25T03:53:14.183Z,65.75
2023-11-25T03:55:48.560Z,65.90
2023-11-25T03:58:21.508Z,65.83
2023-11-25T04:00:54.392Z,66.02
2023-11-25T04:03:27.461Z,66.14
2023-11-25T04:06:00.365Z,66.25
2023-11-25T04:08:34.099Z,66.17
2023-11-25T04:11:09.317Z,66.41
2023-11-25T04:13:42.537Z,66.58
2023-11-25T04:16:16.275Z,66.68
2023-11-25T04:18:49.160Z,66.77
2023-11-25T04:21:24.134Z,66.73
2023-11-25T04:23:57.358Z,66.90
2023-11-25T04:26:32.181Z,66.89
2023-11-25T04:29:05.710Z,67.01
2023-11-25T04:31:38.735Z,67.10
2023-11-25T04:34:11.632Z,67.26
2023-11-25T04:36:44.742Z,67.29
2023-11-25T04:39:17.723Z,67.43
2023-11-25T04:41:51.944Z,67.42
2023-11-25T04:44:25.000Z,67.68
2023-11-25T04:46:58.113Z,67.69
2023-11-25T04:49:31.049Z,67.75
2023-11-25T04:52:05.662Z,67.81
2023-11-25T04:54:39.348Z,68.13
2023-11-25T04:57:13.604Z,68.10
2023-11-25T04:59:47.455Z,68.35
2023-11-25T05:02:21.560Z,67.70
2023-11-25T05:04:54.492Z,67.91
2023-11-25T05:07:30.182Z,68.26
2023-11-25T05:10:04.217Z,68.51
2023-11-25T05:12:38.800Z,67.89
2023-11-25T05:15:16.159Z,68.16
2023-11-25T05:17:49.115Z,68.41
2023-11-25T05:20:28.112Z,68.63
2023-11-25T05:23:00.986Z,68.58
2023-11-25T05:25:33.942Z,68.63
2023-11-25T05:28:08.311Z,68.57
2023-11-25T05:30:42.653Z,68.54
2023-11-25T05:33:15.549Z,68.58
2023-11-25T05:35:48.410Z,68.72
2023-11-25T05:38:25.011Z,68.72
2023-11-25T05:40:58.514Z,68.55
2023-11-25T05:43:32.756Z,68.54
2023-11-25T05:46:06.365Z,68.72
2023-11-25T05:48:42.219Z,68.55
2023-11-25T05:51:16.304Z,68.55
2023-11-25T05:53:49.328Z,68.55
2023-11-25T05:56:25.314Z,68.58
2023-11-25T05:59:02.511Z,68.57
2023-11-25T06:01:35.603Z,68.60
2023-11-25T06:04:08.879Z,68.60
2023-11-25T06:06:41.817Z,68.65
2023-11-25T06:09:15.892Z,68.72
2023-11-25T06:11:54.313Z,68.68
2023-11-25T06:14:29.382Z,68.73
2023-11-25T06:17:04.154Z,68.87
2023-11-25T06:19:37.661Z,68.90
2023-11-25T06:22:10.599Z,68.90
2023-11-25T06:24:44.234Z,68.98
2023-11-25T06:27:19.880Z,68.93
2023-11-25T06:29:54.142Z,69.24
2023-11-25T06:32:28.660Z,69.29
2023-11-25T06:35:01.730Z,69.19
2023-11-25T06:37:37.310Z,69.27
2023-11-25T06:40:13.648Z,69.25
2023-11-25T06:42:46.653Z,69.49
2023-11-25T06:45:22.760Z,69.32
2023-11-25T06:47:56.183Z,69.24
2023-11-25T06:50:29.702Z,69.43
2023-11-25T06:53:02.850Z,69.27
2023-11-25T06:55:36.788Z,69.32
2023-11-25T06:58:12.558Z,69.37
2023-11-25T07:00:49.249Z,69.34
2023-11-25T07:03:22.337Z,69.28
2023-11-25T07:05:58.312Z,69.12
2023-11-25T07:08:34.195Z,69.10
2023-11-25T07:11:11.347Z,68.97
2023-11-25T07:13:45.164Z,68.96
2023-11-25T07:16:19.477Z,69.11
2023-11-25T07:18:52.350Z,68.88
2023-11-25T07:21:25.519Z,68.90
2023-11-25T07:23:58.401Z,68.86
2023-11-25T07:26:31.270Z,68.89
2023-11-25T07:29:05.883Z,68.83
2023-11-25T07:31:40.287Z,68.72
2023-11-25T07:34:13.411Z,68.54
2023-11-25T07:36:47.817Z,68.58
2023-11-25T07:39:20.876Z,68.48
2023-11-25T07:41:55.081Z,68.42
2023-11-25T07:44:31.531Z,68.40
2023-11-25T07:47:07.149Z,68.27
2023-11-25T07:49:40.061Z,68.21
2023-11-25T07:52:13.033Z,68.24
2023-11-25T07:54:46.489Z,68.13
2023-11-25T07:57:19.679Z,68.09
2023-11-25T07:59:52.639Z,67.85
2023-11-25T08:02:27.186Z,67.74
2023-11-25T08:05:00.274Z,67.49
2023-11-25T08:07:33.295Z,67.27
2023-11-25T08:10:08.864Z,67.14
2023-11-25T08:12:41.770Z,66.77
2023-11-25T08:15:15.373Z,66.45
2023-11-25T08:17:49.832Z,66.27
2023-11-25T08:20:23.131Z,65.87
2023-11-25T08:22:56.145Z,65.40
2023-11-25T08:25:29.126Z,65.23
2023-11-25T08:28:02.099Z,64.94
2023-11-25T08:30:35.789Z,64.97
2023-11-25T08:33:10.019Z,64.22
2023-11-25T08:35:43.983Z,63.75
2023-11-25T08:38:16.871Z,63.42
2023-11-25T08:40:49.986Z,63.35
2023-11-25T08:43:23.467Z,63.41
2023-11-25T08:45:56.401Z,63.14
2023-11-25T08:48:31.153Z,63.15
2023-11-25T08:51:08.915Z,63.04
2023-11-25T08:53:45.526Z,63.14
2023-11-25T08:56:18.742Z,63.24
2023-11-25T08:58:59.029Z,63.32
2023-11-25T09:01:43.567Z,63.61
2023-11-25T09:04:20.809Z,63.47
2023-11-25T09:06:56.519Z,63.57
2023-11-25T09:09:29.454Z,63.63
2023-11-25T09:12:04.144Z,63.75
2023-11-25T09:14:37.724Z,63.80
2023-11-25T09:17:12.677Z,63.77
2023-11-25T09:19:46.952Z,63.95
2023-11-25T09:22:19.961Z,63.94
2023-11-25T09:24:52.857Z,64.03
2023-11-25T09:27:25.948Z,64.29
2023-11-25T09:29:59.542Z,64.16
2023-11-25T09:32:32.407Z,64.20
2023-11-25T09:35:08.086Z,64.29
2023-11-25T09:37:41.294Z,64.25
2023-11-25T09:40:16.723Z,64.41
2023-11-25T09:42:50.154Z,64.40
2023-11-25T09:45:29.863Z,64.44
2023-11-25T09:48:04.414Z,64.58
2023-11-25T09:50:39.128Z,64.75
2023-11-25T09:53:20.216Z,64.90
2023-11-25T09:56:02.899Z,65.09
2023-11-25T09:58:37.675Z,65.13
2023-11-25T10:01:13.625Z,65.44
2023-11-25T10:03:49.291Z,65.58
2023-11-25T10:06:23.690Z,66.07
2023-11-25T10:08:56.602Z,66.24
2023-11-25T10:11:33.736Z,66.55
2023-11-25T10:14:11.268Z,66.89
2023-11-25T10:16:45.375Z,66.62
2023-11-25T10:19:23.623Z,67.03
2023-11-25T10:21:59.238Z,67.06
2023-11-25T10:24:32.205Z,67.31
2023-11-25T10:27:06.354Z,67.45
2023-11-25T10:29:41.155Z,67.42
2023-11-25T10:32:14.006Z,67.29
2023-11-25T10:34:46.909Z,67.34
2023-11-25T10:37:22.307Z,67.39
2023-11-25T10:39:56.342Z,67.45
2023-11-25T10:42:30.942Z,67.39
2023-11-25T10:45:06.123Z,67.37
2023-11-25T10:47:40.192Z,67.42
2023-11-25T10:50:14.624Z,67.43
2023-11-25T10:52:53.427Z,67.61
2023-11-25T10:55:28.187Z,67.55
2023-11-25T10:58:02.233Z,67.42
2023-11-25T11:00:36.077Z,67.42
2023-11-25T11:03:11.481Z,67.18
2023-11-25T11:05:51.616Z,67.19
2023-11-25T11:08:32.838Z,67.24
2023-11-25T11:11:12.078Z,67.21
2023-11-25T11:13:51.406Z,67.10
2023-11-25T11:16:33.987Z,67.00
2023-11-25T11:19:08.682Z,66.98
2023-11-25T11:22:03.177Z,66.91
2023-11-25T11:24:49.928Z,66.73
2023-11-25T11:27:34.826Z,66.66
2023-11-25T11:30:18.956Z,66.76
2023-11-25T11:32:56.826Z,66.66
2023-11-25T11:35:43.141Z,66.58
2023-11-25T11:38:31.289Z,66.58
2023-11-25T11:41:28.662Z,66.59
2023-11-25T11:44:05.950Z,66.49
2023-11-25T11:46:40.563Z,66.57
2023-11-25T11:49:20.013Z,66.52
2023-11-25T11:52:03.068Z,66.63
2023-11-25T11:54:39.923Z,66.49
2023-11-25T11:57:19.166Z,66.68
2023-11-25T12:00:04.498Z,66.69
2023-11-25T12:02:41.908Z,66.58
2023-11-25T12:05:18.520Z,66.53
2023-11-25T12:07:56.056Z,66.66
2023-11-25T12:10:29.012Z,66.57
2023-11-25T12:13:04.173Z,66.37
2023-11-25T12:15:37.709Z,66.33
2023-11-25T12:18:16.033Z,66.38
2023-11-25T12:20:49.032Z,66.41
2023-11-25T12:23:24.932Z,66.33
2023-11-25T12:26:01.200Z,66.25
2023-11-25T12:28:42.982Z,66.32
2023-11-25T12:31:16.181Z,66.26
2023-11-25T12:33:49.545Z,66.11
2023-11-25T12:36:27.322Z,66.20
2023-11-25T12:39:03.225Z,66.04
2023-11-25T12:41:41.174Z,66.09
2023-11-25T12:44:17.968Z,65.79
2023-11-25T12:47:05.649Z,65.63
2023-11-25T12:49:38.676Z,65.61
2023-11-25T12:52:21.268Z,65.65
2023-11-25T12:54:54.375Z,65.74
2023-11-25T12:57:30.510Z,65.79
2023-11-25T13:00:12.208Z,65.71
2023-11-25T13:02:47.249Z,65.73
2023-11-25T13:05:25.033Z,65.57
2023-11-25T13:07:58.370Z,65.66
2023-11-25T13:10:31.276Z,65.35
2023-11-25T13:13:05.713Z,65.24
2023-11-25T13:15:39.956Z,65.15
2023-11-25T13:18:13.968Z,65.12
2023-11-25T13:20:46.661Z,65.12
2023-11-25T13:23:21.149Z,65.03
2023-11-25T13:25:54.405Z,65.06
2023-11-25T13:28:27.531Z,65.17
2023-11-25T13:31:01.908Z,65.05
2023-11-25T13:33:35.637Z,65.11
2023-11-25T13:36:09.318Z,64.98
2023-11-25T13:38:42.275Z,64.76
2023-11-25T13:41:15.703Z,64.72
2023-11-25T13:43:48.774Z,64.65
2023-11-25T13:46:23.641Z,64.62
2023-11-25T13:48:56.748Z,64.55
2023-11-25T13:51:29.820Z,64.52
2023-11-25T13:54:03.976Z,64.49
2023-11-25T13:56:36.868Z,64.56
2023-11-25T13:59:12.950Z,64.75
2023-11-25T14:01:48.366Z,64.83
2023-11-25T14:04:25.023Z,64.92
2023-11-25T14:07:00.589Z,64.97
2023-11-25T14:09:33.858Z,65.04
2023-11-25T14:12:08.402Z,64.86
2023-11-25T14:14:41.448Z,64.99
2023-11-25T14:17:18.358Z,65.01
2023-11-25T14:19:52.380Z,64.94
2023-11-25T14:22:25.060Z,64.72
2023-11-25T14:24:58.384Z,64.96
2023-11-25T14:27:33.564Z,65.00
2023-11-25T14:30:09.612Z,65.17
2023-11-25T14:32:46.033Z,65.58
2023-11-25T14:35:19.317Z,65.36
2023-11-25T14:37:54.561Z,65.41
2023-11-25T14:40:30.563Z,65.38
2023-11-25T14:43:03.825Z,65.17
2023-11-25T14:45:36.795Z,65.53
2023-11-25T14:48:12.029Z,65.55
2023-11-25T14:50:45.988Z,65.71
2023-11-25T14:53:20.367Z,65.70
2023-11-25T14:55:53.529Z,65.75
2023-11-25T14:58:26.567Z,65.77
2023-11-25T15:00:59.467Z,65.77
2023-11-25T15:03:33.861Z,65.78
2023-11-25T15:06:08.914Z,65.98
2023-11-25T15:08:43.315Z,65.82
2023-11-25T15:11:16.315Z,65.84
2023-11-25T15:13:49.313Z,65.94
2023-11-25T15:16:22.283Z,65.88
2023-11-25T15:18:57.289Z,66.06
2023-11-25T15:21:30.237Z,66.11
2023-11-25T15:24:03.119Z,66.22
2023-11-25T15:26:36.393Z,66.30
2023-11-25T15:29:09.365Z,66.33
2023-11-25T15:31:42.484Z,66.20
2023-11-25T15:34:17.816Z,66.36
2023-11-25T15:36:51.542Z,66.19
2023-11-25T15:39:28.235Z,66.23
2023-11-25T15:42:01.311Z,66.29
2023-11-25T15:44:34.241Z,66.42
2023-11-25T15:47:07.512Z,66.40
2023-11-25T15:49:42.393Z,66.47
2023-11-25T15:52:15.432Z,66.39
2023-11-25T15:54:48.429Z,66.55
2023-11-25T15:57:21.741Z,66.48
2023-11-25T15:59:55.219Z,66.59
2023-11-25T16:02:28.233Z,66.71
2023-11-25T16:05:02.682Z,66.66
2023-11-25T16:07:35.779Z,66.67
2023-11-25T16:10:11.403Z,66.64
2023-11-25T16:12:44.782Z,66.58
2023-11-25T16:15:18.389Z,66.75
2023-11-25T16:17:51.381Z,66.89
2023-11-25T16:20:25.720Z,66.90
2023-11-25T16:22:58.811Z,66.89
2023-11-25T16:25:31.765Z,66.81
2023-11-25T16:28:05.394Z,67.00
2023-11-25T16:30:38.298Z,66.85
2023-11-25T16:33:11.516Z,66.77
2023-11-25T16:35:45.854Z,66.77
2023-11-25T16:38:21.007Z,66.86
2023-11-25T16:40:54.310Z,66.91
2023-11-25T16:43:27.229Z,66.82
2023-11-25T16:46:01.340Z,66.85
2023-11-25T16:48:43.770Z,67.01
2023-11-25T16:51:26.040Z,66.82
2023-11-25T16:53:58.995Z,67.03
2023-11-25T16:56:31.880Z,66.98
2023-11-25T16:59:06.243Z,66.93
2023-11-25T17:01:41.659Z,67.05
2023-11-25T17:04:15.808Z,66.96
2023-11-25T17:06:50.245Z,66.93
2023-11-25T17:09:26.057Z,67.07
2023-11-25T17:11:58.956Z,67.17
2023-11-25T17:14:31.918Z,66.96
2023-11-25T17:17:09.900Z,66.98
2023-11-25T17:19:42.976Z,67.03
2023-11-25T17:22:17.289Z,66.94
2023-11-25T17:24:50.251Z,66.85
2023-11-25T17:27:25.493Z,67.11
2023-11-25T17:29:58.555Z,67.13
2023-11-25T17:32:31.516Z,67.18
2023-11-25T17:35:05.188Z,67.25
2023-11-25T17:37:39.672Z,67.50
2023-11-25T17:40:13.792Z,67.64
2023-11-25T17:42:47.352Z,67.73
2023-11-25T17:45:20.252Z,67.78
2023-11-25T17:47:53.440Z,67.75
2023-11-25T17:50:26.550Z,67.59
2023-11-25T17:53:09.517Z,67.68
2023-11-25T17:55:45.899Z,67.73
2023-11-25T17:58:18.893Z,67.67
2023-11-25T18:00:54.406Z,67.76
2023-11-25T18:03:28.768Z,67.75
2023-11-25T18:06:01.704Z,67.72
2023-11-25T18:08:36.016Z,67.63
2023-11-25T18:11:08.961Z,67.54
2023-11-25T18:13:42.045Z,67.69
2023-11-25T18:16:16.956Z,67.78
2023-11-25T18:18:50.122Z,67.72
2023-11-25T18:21:23.245Z,67.81
2023-11-25T18:23:57.521Z,67.71
2023-11-25T18:26:30.386Z,67.83
2023-11-25T18:29:03.568Z,67.81
2023-11-25T18:31:36.516Z,67.64
2023-11-25T18:34:09.981Z,67.79
2023-11-25T18:36:42.895Z,67.82
2023-11-25T18:39:17.162Z,67.81
2023-11-25T18:41:50.161Z,67.70
2023-11-25T18:44:23.101Z,67.58
2023-11-25T18:46:56.035Z,67.46
2023-11-25T18:49:28.956Z,67.50
2023-11-25T18:52:02.649Z,67.62
2023-11-25T18:54:36.972Z,67.74
2023-11-25T18:57:10.057Z,67.99
2023-11-25T18:59:46.509Z,67.82
2023-11-25T19:02:20.447Z,67.85
2023-11-25T19:04:53.267Z,67.68
2023-11-25T19:07:26.214Z,67.82
2023-11-25T19:10:00.494Z,67.93
2023-11-25T19:12:35.665Z,68.06
2023-11-25T19:15:09.020Z,68.25
2023-11-25T19:17:42.015Z,68.21
2023-11-25T19:20:15.260Z,68.30
2023-11-25T19:22:48.226Z,68.55
2023-11-25T19:25:22.625Z,68.53
2023-11-25T19:27:56.380Z,68.65
2023-11-25T19:30:30.027Z,68.52
2023-11-25T19:33:03.803Z,68.50
2023-11-25T19:35:37.450Z,68.68
2023-11-25T19:38:12.493Z,68.65
2023-11-25T19:40:48.685Z,68.68
2023-11-25T19:43:22.522Z,68.90
2023-11-25T19:45:55.557Z,68.81
2023-11-25T19:48:28.659Z,68.75
2023-11-25T19:51:01.706Z,68.80
2023-11-25T19:53:49.584Z,68.72
2023-11-25T19:56:25.930Z,68.61
2023-11-25T19:58:58.999Z,68.58
2023-11-25T20:01:31.981Z,68.75
2023-11-25T20:04:05.427Z,68.54
2023-11-25T20:06:38.738Z,68.41
2023-11-25T20:09:12.720Z,68.37
2023-11-25T20:11:47.585Z,68.32
2023-11-25T20:14:20.688Z,68.37
2023-11-25T20:16:53.949Z,68.24
2023-11-25T20:19:28.991Z,68.18
2023-11-25T20:22:02.209Z,68.13
2023-11-25T20:24:35.309Z,68.26
2023-11-25T20:27:09.656Z,68.09
2023-11-25T20:29:43.058Z,68.33
2023-11-25T20:32:19.240Z,68.04
2023-11-25T20:34:52.325Z,68.22
2023-11-25T20:37:25.368Z,68.25
2023-11-25T20:39:59.534Z,68.18
2023-11-25T20:42:33.944Z,67.98
2023-11-25T20:45:08.230Z,68.21
2023-11-25T20:47:41.252Z,68.06
2023-11-25T20:50:14.466Z,68.13
2023-11-25T20:52:47.949Z,68.20
2023-11-25T20:55:21.453Z,68.00
2023-11-25T20:57:56.600Z,68.11
2023-11-25T21:00:30.253Z,68.05
2023-11-25T21:03:04.015Z,68.10
2023-11-25T21:05:36.983Z,67.76
2023-11-25T21:08:12.848Z,67.95
2023-11-25T21:10:45.907Z,68.03
2023-11-25T21:13:20.418Z,68.09
2023-11-25T21:15:53.739Z,68.01
2023-11-25T21:18:26.731Z,67.89
2023-11-25T21:20:59.948Z,67.79
2023-11-25T21:23:32.983Z,67.79
2023-11-25T21:26:07.254Z,67.76
2023-11-25T21:28:42.773Z,67.74
2023-11-25T21:31:15.921Z,67.63
2023-11-25T21:33:48.982Z,67.74
2023-11-25T21:36:21.838Z,67.63
2023-11-25T21:38:54.908Z,67.68
2023-11-25T21:41:27.871Z,67.64
2023-11-25T21:44:02.154Z,67.73
2023-11-25T21:46:35.113Z,67.58
2023-11-25T21:49:08.179Z,67.63
2023-11-25T21:51:41.052Z,67.60
2023-11-25T21:54:14.131Z,67.66
2023-11-25T21:56:48.202Z,67.76
2023-11-25T21:59:22.331Z,67.58
2023-11-25T22:01:55.499Z,67.67
2023-11-25T22:04:28.622Z,67.87
2023-11-25T22:07:03.836Z,68.12
2023-11-25T22:09:37.565Z,68.30
2023-11-25T22:12:10.556Z,68.33
2023-11-25T22:14:44.989Z,68.42
2023-11-25T22:17:17.881Z,68.43
2023-11-25T22:19:50.902Z,68.46
2023-11-25T22:22:24.057Z,68.70
2023-11-25T22:24:57.268Z,68.75
2023-11-25T22:27:32.639Z,68.68
2023-11-25T22:30:09.141Z,69.07
2023-11-25T22:32:42.903Z,68.98
2023-11-25T22:35:17.528Z,69.13
2023-11-25T22:37:50.893Z,69.11
2023-11-25T22:40:24.096Z,69.26
2023-11-25T22:42:57.088Z,69.10
2023-11-25T22:45:33.053Z,69.26
2023-11-25T22:48:06.388Z,69.25
2023-11-25T22:50:39.257Z,69.29
2023-11-25T22:53:12.406Z,69.68
2023-11-25T22:55:45.482Z,69.35
2023-11-25T22:58:18.431Z,69.53
2023-11-25T23:01:05.613Z,69.69
2023-11-25T23:03:38.750Z,69.65
2023-11-25T23:06:11.882Z,69.52
2023-11-25T23:08:47.775Z,69.62
2023-11-25T23:11:21.102Z,69.61
2023-11-25T23:13:56.698Z,69.77
2023-11-25T23:16:31.088Z,69.73
2023-11-25T23:19:04.114Z,69.51
2023-11-25T23:21:36.998Z,69.87
2023-11-25T23:24:10.177Z,69.82
2023-11-25T23:26:43.202Z,69.59
2023-11-25T23:29:16.533Z,69.87
2023-11-25T23:31:50.775Z,69.74
2023-11-25T23:34:23.863Z,69.86
2023-11-25T23:36:56.924Z,69.69
2023-11-25T23:39:30.450Z,69.81
2023-11-25T23:42:03.744Z,69.71
2023-11-25T23:44:36.706Z,69.93
2023-11-25T23:47:11.048Z,69.97
2023-11-25T23:49:44.064Z,69.82
2023-11-25T23:52:17.614Z,69.95
2023-11-25T23:54:50.872Z,69.95
2023-11-25T23:57:23.773Z,69.96
2023-11-25T23:59:56.904Z,70.07
